createdAt,value
2024-05-09T00:00:30.752Z,13.100
2024-05-09T00:01:23.065Z,13.100
2024-05-09T00:02:33.272Z,13.100
2024-05-09T00:03:27.499Z,13.100
2024-05-09T00:04:25.293Z,13.100
2024-05-09T00:05:22.259Z,13.100
2024-05-09T00:06:22.140Z,13.000
2024-05-09T00:07:26.569Z,13.000
2024-05-09T00:08:30.522Z,13.000
2024-05-09T00:09:34.112Z,13.000
2024-05-09T00:10:35.201Z,13.000
2024-05-09T00:11:31.297Z,13.000
2024-05-09T00:12:24.103Z,13.000
2024-05-09T00:13:25.771Z,13.000
2024-05-09T00:14:26.285Z,13.000
2024-05-09T00:15:21.100Z,13.000
2024-05-09T00:16:27.377Z,12.950
2024-05-09T00:17:27.576Z,12.900
2024-05-09T00:18:25.359Z,12.900
2024-05-09T00:19:28.459Z,12.900
2024-05-09T00:20:28.552Z,12.900
2024-05-09T00:21:25.753Z,12.900
2024-05-09T00:22:21.676Z,12.900
2024-05-09T00:23:30.451Z,12.900
2024-05-09T00:24:27.346Z,12.900
2024-05-09T00:25:25.041Z,12.900
2024-05-09T00:26:33.323Z,12.900
2024-05-09T00:27:25.153Z,12.900
2024-05-09T00:28:26.931Z,12.900
2024-05-09T00:30:46.739Z,12.900
2024-05-09T00:31:29.450Z,12.900
2024-05-09T00:32:25.317Z,12.900
2024-05-09T00:33:37.851Z,12.900
2024-05-09T00:34:29.342Z,12.800
2024-05-09T00:35:21.732Z,12.800
2024-05-09T00:36:23.944Z,12.800
2024-05-09T00:38:21.596Z,12.800
2024-05-09T00:39:23.416Z,12.800
2024-05-09T00:45:24.112Z,12.800
2024-05-09T00:46:24.049Z,12.800
2024-05-09T00:47:33.496Z,12.800
2024-05-09T00:48:31.478Z,12.700
2024-05-09T00:49:25.625Z,12.700
2024-05-09T00:50:29.935Z,12.700
2024-05-09T00:51:25.675Z,12.700
2024-05-09T00:52:43.085Z,12.700
2024-05-09T00:53:23.562Z,12.700
2024-05-09T00:54:33.128Z,12.700
2024-05-09T00:55:31.243Z,12.700
2024-05-09T00:56:22.712Z,12.700
2024-05-09T00:57:22.803Z,12.700
2024-05-09T00:58:20.266Z,12.700
2024-05-09T00:59:30.424Z,12.700
2024-05-09T01:00:31.474Z,12.700
2024-05-09T01:01:46.153Z,12.700
2024-05-09T01:11:05.467Z,12.600
2024-05-09T01:12:43.793Z,12.600
2024-05-09T01:13:11.184Z,12.600
2024-05-09T01:14:40.187Z,12.600
2024-05-09T01:16:04.631Z,12.600
2024-05-09T01:16:33.471Z,12.500
2024-05-09T01:18:27.319Z,12.500
2024-05-09T01:18:52.464Z,12.500
2024-05-09T01:20:42.462Z,12.500
2024-05-09T01:20:53.534Z,12.500
2024-05-09T01:23:16.551Z,12.500
2024-05-09T01:23:39.618Z,12.500
2024-05-09T01:24:52.840Z,12.500
2024-05-09T01:26:48.980Z,12.500
2024-05-09T01:27:12.880Z,12.500
2024-05-09T01:28:25.491Z,12.500
2024-05-09T01:36:55.974Z,12.400
2024-05-09T01:37:36.276Z,12.400
2024-05-09T01:38:27.623Z,12.400
2024-05-09T01:42:43.998Z,12.400
2024-05-09T01:44:36.250Z,12.400
2024-05-09T01:45:18.387Z,12.400
2024-05-09T01:45:23.079Z,12.400
2024-05-09T01:46:21.281Z,12.400
2024-05-09T01:47:32.269Z,12.400
2024-05-09T01:48:28.722Z,12.350
2024-05-09T01:49:24.041Z,12.300
2024-05-09T01:50:39.663Z,12.300
2024-05-09T01:51:20.519Z,12.300
2024-05-09T01:52:25.574Z,12.300
2024-05-09T01:53:22.697Z,12.300
2024-05-09T01:54:21.811Z,12.300
2024-05-09T01:55:28.909Z,12.200
2024-05-09T01:56:23.563Z,12.200
2024-05-09T01:57:34.117Z,12.200
2024-05-09T01:58:23.529Z,12.200
2024-05-09T01:59:28.729Z,12.200
2024-05-09T02:01:23.470Z,12.200
2024-05-09T02:02:29.607Z,12.200
2024-05-09T02:03:24.387Z,12.150
2024-05-09T02:04:34.838Z,12.100
2024-05-09T02:05:29.480Z,12.100
2024-05-09T02:06:21.015Z,12.100
2024-05-09T02:07:21.657Z,12.100
2024-05-09T02:08:26.418Z,12.100
2024-05-09T02:09:28.610Z,12.100
2024-05-09T02:10:31.675Z,12.100
2024-05-09T02:11:34.541Z,12.100
2024-05-09T02:12:23.279Z,12.000
2024-05-09T02:14:21.933Z,12.000
2024-05-09T02:15:24.257Z,12.000
2024-05-09T02:16:28.048Z,12.000
2024-05-09T02:17:23.444Z,12.000
2024-05-09T02:18:35.017Z,12.000
2024-05-09T02:19:24.771Z,12.000
2024-05-09T02:20:34.070Z,12.000
2024-05-09T02:21:21.812Z,12.000
2024-05-09T02:22:27.118Z,12.000
2024-05-09T02:23:20.303Z,12.000
2024-05-09T02:24:23.137Z,11.900
2024-05-09T02:25:35.626Z,11.900
2024-05-09T02:26:29.777Z,11.900
2024-05-09T02:27:26.770Z,11.900
2024-05-09T02:28:21.324Z,11.900
2024-05-09T02:29:31.762Z,11.900
2024-05-09T02:30:31.071Z,11.900
2024-05-09T02:32:35.331Z,11.900
2024-05-09T02:33:30.833Z,11.900
2024-05-09T02:34:26.150Z,11.900
2024-05-09T02:35:21.233Z,11.900
2024-05-09T02:36:23.051Z,11.900
2024-05-09T02:37:28.022Z,11.900
2024-05-09T02:39:34.953Z,11.900
2024-05-09T02:40:36.559Z,11.900
2024-05-09T02:41:22.226Z,11.900
2024-05-09T02:42:21.960Z,11.900
2024-05-09T02:43:27.352Z,11.800
2024-05-09T02:44:22.513Z,11.800
2024-05-09T02:45:25.183Z,11.800
2024-05-09T02:47:30.466Z,11.800
2024-05-09T02:48:27.111Z,11.800
2024-05-09T02:49:23.475Z,11.800
2024-05-09T02:50:37.945Z,11.800
2024-05-09T02:51:23.683Z,11.800
2024-05-09T02:52:23.807Z,11.800
2024-05-09T02:53:24.852Z,11.800
2024-05-09T02:54:30.919Z,11.700
2024-05-09T02:56:21.865Z,11.700
2024-05-09T02:57:31.295Z,11.700
2024-05-09T02:58:29.627Z,11.700
2024-05-09T02:59:24.170Z,11.600
2024-05-09T03:00:36.802Z,11.600
2024-05-09T03:01:19.775Z,11.600
2024-05-09T03:02:25.392Z,11.600
2024-05-09T03:03:21.695Z,11.600
2024-05-09T03:04:31.811Z,11.600
2024-05-09T03:05:28.411Z,11.600
2024-05-09T03:06:25.620Z,11.600
2024-05-09T03:07:34.579Z,11.600
2024-05-09T03:08:24.513Z,11.600
2024-05-09T03:09:25.217Z,11.600
2024-05-09T03:10:25.453Z,11.600
2024-05-09T03:11:33.302Z,11.500
2024-05-09T03:12:27.477Z,11.500
2024-05-09T03:13:30.326Z,11.500
2024-05-09T03:14:22.638Z,11.500
2024-05-09T03:15:31.087Z,11.600
2024-05-09T03:16:21.433Z,11.500
2024-05-09T03:17:23.242Z,11.500
2024-05-09T03:18:31.765Z,11.500
2024-05-09T03:19:29.516Z,11.500
2024-05-09T03:20:27.752Z,11.500
2024-05-09T03:21:26.184Z,11.500
2024-05-09T03:22:33.733Z,11.500
2024-05-09T03:24:21.258Z,11.500
2024-05-09T03:25:32.773Z,11.500
2024-05-09T03:26:27.845Z,11.400
2024-05-09T03:27:24.866Z,11.400
2024-05-09T03:28:22.292Z,11.400
2024-05-09T03:29:24.798Z,11.400
2024-05-09T03:30:34.622Z,11.400
2024-05-09T03:31:22.174Z,11.400
2024-05-09T03:34:23.600Z,11.400
2024-05-09T03:35:25.277Z,11.400
2024-05-09T03:37:21.118Z,11.400
2024-05-09T03:38:21.677Z,11.400
2024-05-09T03:39:19.811Z,11.400
2024-05-09T03:40:30.926Z,11.400
2024-05-09T03:41:23.377Z,11.400
2024-05-09T03:42:26.477Z,11.400
2024-05-09T03:43:32.609Z,11.400
2024-05-09T03:44:25.742Z,11.400
2024-05-09T03:45:22.796Z,11.400
2024-05-09T03:46:24.400Z,11.400
2024-05-09T03:48:23.770Z,11.300
2024-05-09T03:49:29.528Z,11.300
2024-05-09T03:50:35.490Z,11.300
2024-05-09T03:51:28.122Z,11.300
2024-05-09T03:52:23.648Z,11.300
2024-05-09T03:53:24.386Z,11.300
2024-05-09T03:54:22.166Z,11.300
2024-05-09T03:55:24.034Z,11.300
2024-05-09T03:56:33.948Z,11.300
2024-05-09T03:57:29.725Z,11.300
2024-05-09T03:58:26.977Z,11.300
2024-05-09T03:59:22.079Z,11.200
2024-05-09T04:04:22.736Z,11.150
2024-05-09T04:05:26.455Z,11.200
2024-05-09T04:06:21.914Z,11.200
2024-05-09T04:07:22.547Z,11.100
2024-05-09T04:08:30.059Z,11.100
2024-05-09T04:10:35.651Z,11.100
2024-05-09T04:11:27.298Z,11.100
2024-05-09T04:12:27.441Z,11.100
2024-05-09T04:13:21.703Z,11.100
2024-05-09T04:14:25.590Z,11.100
2024-05-09T04:15:20.576Z,11.100
2024-05-09T04:16:23.617Z,11.100
2024-05-09T04:17:34.835Z,11.100
2024-05-09T04:19:25.580Z,11.100
2024-05-09T04:20:32.575Z,11.100
2024-05-09T04:21:31.957Z,11.100
2024-05-09T04:22:25.065Z,11.100
2024-05-09T04:23:25.577Z,11.100
2024-05-09T04:24:25.274Z,11.100
2024-05-09T04:25:31.708Z,11.000
2024-05-09T04:26:25.374Z,11.000
2024-05-09T04:27:23.295Z,11.000
2024-05-09T04:28:36.162Z,11.000
2024-05-09T04:29:27.770Z,11.000
2024-05-09T04:30:30.205Z,11.000
2024-05-09T04:31:29.288Z,11.000
2024-05-09T04:32:21.093Z,11.100
2024-05-09T04:33:23.141Z,11.000
2024-05-09T04:34:21.517Z,11.000
2024-05-09T04:35:31.716Z,11.000
2024-05-09T04:36:34.986Z,11.000
2024-05-09T04:37:39.651Z,11.000
2024-05-09T04:39:25.354Z,11.000
2024-05-09T04:40:33.027Z,11.000
2024-05-09T04:41:22.333Z,11.000
2024-05-09T04:42:31.437Z,11.000
2024-05-09T04:43:28.320Z,11.000
2024-05-09T04:44:24.569Z,11.000
2024-05-09T04:45:22.219Z,11.100
2024-05-09T04:46:30.992Z,11.100
2024-05-09T04:47:22.988Z,11.100
2024-05-09T04:48:22.117Z,11.100
2024-05-09T04:49:33.409Z,11.100
2024-05-09T04:50:36.460Z,11.100
2024-05-09T04:51:24.376Z,11.100
2024-05-09T04:52:24.978Z,11.100
2024-05-09T04:53:31.423Z,11.100
2024-05-09T04:54:36.130Z,11.100
2024-05-09T04:56:39.192Z,11.100
2024-05-09T04:57:27.596Z,11.100
2024-05-09T04:58:25.659Z,11.100
2024-05-09T05:00:28.902Z,11.200
2024-05-09T05:01:26.818Z,11.200
2024-05-09T05:02:24.083Z,11.100
2024-05-09T05:04:27.551Z,11.200
2024-05-09T05:05:26.162Z,11.200
2024-05-09T05:06:35.251Z,11.200
2024-05-09T05:07:25.566Z,11.200
2024-05-09T05:08:27.419Z,11.200
2024-05-09T05:09:24.257Z,11.200
2024-05-09T05:10:32.998Z,11.200
2024-05-09T05:11:27.692Z,11.200
2024-05-09T05:12:25.784Z,11.200
2024-05-09T05:13:41.340Z,11.200
2024-05-09T05:14:29.369Z,11.200
2024-05-09T05:15:26.785Z,11.200
2024-05-09T05:16:21.472Z,11.200
2024-05-09T05:17:26.664Z,11.300
2024-05-09T05:18:28.300Z,11.300
2024-05-09T05:19:24.804Z,11.300
2024-05-09T05:20:30.679Z,11.300
2024-05-09T05:21:29.754Z,11.300
2024-05-09T05:22:28.765Z,11.300
2024-05-09T05:23:22.219Z,11.300
2024-05-09T05:24:33.180Z,11.300
2024-05-09T05:25:24.263Z,11.300
2024-05-09T05:26:23.425Z,11.300
2024-05-09T05:27:19.957Z,11.300
2024-05-09T05:28:39.814Z,11.300
2024-05-09T05:29:25.889Z,11.300
2024-05-09T05:30:29.346Z,11.300
2024-05-09T05:31:34.101Z,11.300
2024-05-09T05:33:24.824Z,11.300
2024-05-09T05:34:19.615Z,11.300
2024-05-09T05:35:33.200Z,11.300
2024-05-09T05:36:27.804Z,11.300
2024-05-09T05:37:21.683Z,11.300
2024-05-09T05:38:26.094Z,11.300
2024-05-09T05:39:31.697Z,11.300
2024-05-09T05:42:29.936Z,11.300
2024-05-09T05:43:25.631Z,11.300
2024-05-09T05:44:22.982Z,11.300
2024-05-09T05:45:25.848Z,11.300
2024-05-09T05:46:28.262Z,11.300
2024-05-09T05:47:23.605Z,11.300
2024-05-09T05:48:20.839Z,11.300
2024-05-09T05:50:32.524Z,11.400
2024-05-09T05:51:23.376Z,11.400
2024-05-09T05:52:32.699Z,11.400
2024-05-09T05:53:23.479Z,11.400
2024-05-09T05:54:23.517Z,11.400
2024-05-09T05:55:19.636Z,11.400
2024-05-09T05:56:23.699Z,11.400
2024-05-09T05:57:26.557Z,11.400
2024-05-09T05:58:21.542Z,11.400
2024-05-09T05:59:35.128Z,11.400
2024-05-09T06:00:37.670Z,11.400
2024-05-09T06:01:23.607Z,11.400
2024-05-09T06:02:19.705Z,11.400
2024-05-09T06:03:24.187Z,11.400
2024-05-09T06:04:25.631Z,11.400
2024-05-09T06:05:24.265Z,11.400
2024-05-09T06:06:39.041Z,11.400
2024-05-09T06:07:21.548Z,11.500
2024-05-09T06:08:28.026Z,11.500
2024-05-09T06:09:20.186Z,11.500
2024-05-09T06:10:34.763Z,11.500
2024-05-09T06:11:25.559Z,11.500
2024-05-09T06:12:21.936Z,11.500
2024-05-09T06:13:39.936Z,11.450
2024-05-09T06:14:24.995Z,11.400
2024-05-09T06:15:24.451Z,11.400
2024-05-09T06:16:35.499Z,11.400
2024-05-09T06:17:34.526Z,11.400
2024-05-09T06:19:21.511Z,11.400
2024-05-09T06:20:38.377Z,11.400
2024-05-09T06:24:29.813Z,11.500
2024-05-09T06:25:22.564Z,11.500
2024-05-09T06:30:29.887Z,11.600
2024-05-09T06:31:22.237Z,11.600
2024-05-09T06:32:25.671Z,11.600
2024-05-09T06:33:21.833Z,11.600
2024-05-09T06:34:32.830Z,11.600
2024-05-09T06:43:23.609Z,11.700
2024-05-09T06:44:21.030Z,11.700
2024-05-09T06:45:30.833Z,11.700
2024-05-09T06:46:23.035Z,11.700
2024-05-09T06:47:21.590Z,11.700
2024-05-09T06:48:26.542Z,11.700
2024-05-09T06:49:28.627Z,11.800
2024-05-09T06:50:31.473Z,11.800
2024-05-09T06:51:19.639Z,11.800
2024-05-09T06:52:32.798Z,11.800
2024-05-09T06:53:27.818Z,11.800
2024-05-09T06:54:22.325Z,11.800
2024-05-09T06:55:34.064Z,11.800
2024-05-09T06:56:24.308Z,11.800
2024-05-09T06:57:24.974Z,11.800
2024-05-09T06:58:20.258Z,11.800
2024-05-09T06:59:30.121Z,11.850
2024-05-09T07:00:35.659Z,11.900
2024-05-09T07:01:24.823Z,11.900
2024-05-09T07:02:31.617Z,11.900
2024-05-09T07:03:29.061Z,11.900
2024-05-09T07:04:20.609Z,11.900
2024-05-09T07:05:19.933Z,11.900
2024-05-09T07:06:30.777Z,12.000
2024-05-09T07:07:27.911Z,12.000
2024-05-09T07:08:23.795Z,12.000
2024-05-09T07:09:31.900Z,12.000
2024-05-09T07:10:33.116Z,12.000
2024-05-09T07:11:26.725Z,12.000
2024-05-09T07:13:29.752Z,12.000
2024-05-09T07:14:27.179Z,12.000
2024-05-09T07:15:22.039Z,12.100
2024-05-09T07:16:23.532Z,12.100
2024-05-09T07:17:29.331Z,12.100
2024-05-09T07:18:25.826Z,12.100
2024-05-09T07:19:21.820Z,12.100
2024-05-09T07:21:27.780Z,12.100
2024-05-09T07:22:22.656Z,12.100
2024-05-09T07:23:22.585Z,12.100
2024-05-09T07:24:20.695Z,12.100
2024-05-09T07:25:23.678Z,12.100
2024-05-09T07:26:19.744Z,12.100
2024-05-09T07:27:30.229Z,12.100
2024-05-09T07:28:27.660Z,12.100
2024-05-09T07:29:22.063Z,12.200
2024-05-09T07:30:34.475Z,12.200
2024-05-09T07:31:26.843Z,12.200
2024-05-09T07:32:24.368Z,12.200
2024-05-09T07:33:23.271Z,12.200
2024-05-09T07:34:24.319Z,12.200
2024-05-09T07:35:26.093Z,12.300
2024-05-09T07:36:27.450Z,12.300
2024-05-09T07:37:31.835Z,12.300
2024-05-09T07:38:33.642Z,12.300
2024-05-09T07:39:25.362Z,12.300
2024-05-09T07:40:31.806Z,12.300
2024-05-09T07:42:22.415Z,12.300
2024-05-09T07:43:23.724Z,12.300
2024-05-09T07:44:34.453Z,12.300
2024-05-09T07:45:45.192Z,12.300
2024-05-09T07:47:34.795Z,12.300
2024-05-09T07:48:57.484Z,12.300
2024-05-09T07:50:34.468Z,12.300
2024-05-09T07:52:01.184Z,12.300
2024-05-09T07:53:20.413Z,12.400
2024-05-09T07:53:36.167Z,12.400
2024-05-09T07:53:46.341Z,12.400
2024-05-09T07:53:52.563Z,12.500
2024-05-09T07:53:58.285Z,12.500
2024-05-09T07:54:23.014Z,12.500
2024-05-09T07:55:29.846Z,12.500
2024-05-09T07:56:31.612Z,12.500
2024-05-09T07:59:25.206Z,12.500
2024-05-09T08:00:30.901Z,12.500
2024-05-09T08:01:21.173Z,12.500
2024-05-09T08:02:30.851Z,12.600
2024-05-09T08:03:25.648Z,12.600
2024-05-09T08:04:23.046Z,12.600
2024-05-09T08:05:33.060Z,12.600
2024-05-09T08:06:27.578Z,12.600
2024-05-09T08:07:25.464Z,12.600
2024-05-09T08:08:19.862Z,12.600
2024-05-09T08:09:24.167Z,12.600
2024-05-09T08:10:27.463Z,12.600
2024-05-09T08:11:22.478Z,12.600
2024-05-09T08:12:23.066Z,12.600
2024-05-09T08:13:30.539Z,12.700
2024-05-09T08:14:26.069Z,12.700
2024-05-09T08:15:20.548Z,12.700
2024-05-09T08:16:30.286Z,12.700
2024-05-09T08:17:29.680Z,12.800
2024-05-09T08:18:22.750Z,12.800
2024-05-09T08:19:29.950Z,12.800
2024-05-09T08:20:30.150Z,12.900
2024-05-09T08:21:24.031Z,12.900
2024-05-09T08:22:21.910Z,12.900
2024-05-09T08:23:32.897Z,12.900
2024-05-09T08:24:26.567Z,12.900
2024-05-09T08:25:22.376Z,13.000
2024-05-09T08:26:33.903Z,13.000
2024-05-09T08:27:25.097Z,13.000
2024-05-09T08:28:24.357Z,13.100
2024-05-09T08:29:19.653Z,13.100
2024-05-09T08:30:36.368Z,13.100
2024-05-09T08:31:28.729Z,13.200
2024-05-09T08:32:23.045Z,13.200
2024-05-09T08:33:32.270Z,13.200
2024-05-09T08:34:29.685Z,13.300
2024-05-09T08:36:20.153Z,13.300
2024-05-09T08:37:35.013Z,13.300
2024-05-09T08:38:28.259Z,13.300
2024-05-09T08:40:36.115Z,13.400
2024-05-09T08:41:27.799Z,13.400
2024-05-09T08:42:29.610Z,13.400
2024-05-09T08:44:30.066Z,13.400
2024-05-09T08:45:32.551Z,13.500
2024-05-09T08:46:23.740Z,13.400
2024-05-09T08:47:22.992Z,13.500
2024-05-09T08:48:28.328Z,13.500
2024-05-09T08:49:25.451Z,13.500
2024-05-09T08:50:35.630Z,13.600
2024-05-09T08:51:30.455Z,13.600
2024-05-09T08:52:29.278Z,13.700
2024-05-09T08:53:25.759Z,13.700
2024-05-09T08:57:26.126Z,13.700
2024-05-09T08:58:23.145Z,13.700
2024-05-09T08:59:28.617Z,13.800
2024-05-09T09:03:28.740Z,13.900
2024-05-09T09:04:20.752Z,14.000
2024-05-09T09:05:25.856Z,14.000
2024-05-09T09:06:26.294Z,14.000
2024-05-09T09:07:22.198Z,14.000
2024-05-09T09:08:34.901Z,14.000
2024-05-09T09:09:31.264Z,14.000
2024-05-09T09:10:29.279Z,14.000
2024-05-09T09:11:20.339Z,14.000
2024-05-09T09:12:32.896Z,14.100
2024-05-09T09:13:21.793Z,14.000
2024-05-09T09:14:22.010Z,14.000
2024-05-09T09:15:23.580Z,14.000
2024-05-09T09:16:28.236Z,14.050
2024-05-09T09:17:25.605Z,14.100
2024-05-09T09:18:21.806Z,14.100
2024-05-09T09:19:29.748Z,14.100
2024-05-09T09:20:39.958Z,14.100
2024-05-09T09:22:34.286Z,14.200
2024-05-09T09:23:27.394Z,14.200
2024-05-09T09:24:24.488Z,14.300
2024-05-09T09:25:24.088Z,14.400
2024-05-09T09:26:29.898Z,14.400
2024-05-09T09:27:25.461Z,14.400
2024-05-09T09:28:23.204Z,14.400
2024-05-09T09:30:35.385Z,14.400
2024-05-09T09:31:26.594Z,14.400
2024-05-09T09:32:20.440Z,14.400
2024-05-09T09:33:22.948Z,14.500
2024-05-09T09:34:28.237Z,14.500
2024-05-09T09:35:23.702Z,14.500
2024-05-09T09:36:22.532Z,14.500
2024-05-09T09:37:28.328Z,14.600
2024-05-09T09:38:23.647Z,14.600
2024-05-09T09:39:21.219Z,14.650
2024-05-09T09:40:32.126Z,14.600
2024-05-09T09:41:26.393Z,14.600
2024-05-09T09:42:23.465Z,14.600
2024-05-09T09:43:25.140Z,14.600
2024-05-09T09:44:20.697Z,14.600
2024-05-09T09:45:25.564Z,14.700
2024-05-09T09:46:19.750Z,14.700
2024-05-09T09:47:30.620Z,14.700
2024-05-09T09:48:26.819Z,14.800
2024-05-09T09:49:21.994Z,14.800
2024-05-09T09:50:34.309Z,14.800
2024-05-09T09:51:23.702Z,14.800
2024-05-09T09:52:26.303Z,14.800
2024-05-09T09:53:21.642Z,14.800
2024-05-09T09:57:33.992Z,15.000
2024-05-09T09:59:24.027Z,15.000
2024-05-09T10:00:27.198Z,15.000
2024-05-09T10:01:29.586Z,15.000
2024-05-09T10:03:22.579Z,15.000
2024-05-09T10:04:33.711Z,15.100
2024-05-09T10:05:31.780Z,15.100
2024-05-09T10:07:19.729Z,15.200
2024-05-09T10:08:30.165Z,15.200
2024-05-09T10:09:26.665Z,15.300
2024-05-09T10:10:31.562Z,15.300
2024-05-09T10:11:41.659Z,15.300
2024-05-09T10:12:28.302Z,15.300
2024-05-09T10:13:24.048Z,15.300
2024-05-09T10:14:20.157Z,15.300
2024-05-09T10:16:26.105Z,15.400
2024-05-09T10:17:23.143Z,15.500
2024-05-09T10:18:21.638Z,15.500
2024-05-09T10:19:28.128Z,15.500
2024-05-09T10:20:28.177Z,15.600
2024-05-09T10:21:19.605Z,15.600
2024-05-09T10:22:31.422Z,15.700
2024-05-09T10:23:26.211Z,15.800
2024-05-09T10:24:22.115Z,15.800
2024-05-09T10:25:25.527Z,15.800
2024-05-09T10:26:27.833Z,15.700
2024-05-09T10:27:26.659Z,15.700
2024-05-09T10:28:20.515Z,15.700
2024-05-09T10:30:57.519Z,15.700
2024-05-09T10:32:45.195Z,15.800
2024-05-09T10:33:00.058Z,15.900
2024-05-09T10:33:07.156Z,16.000
2024-05-09T10:33:28.123Z,16.100
2024-05-09T10:34:25.045Z,16.200
2024-05-09T10:35:20.744Z,16.200
2024-05-09T10:36:28.685Z,16.200
2024-05-09T10:37:25.895Z,16.300
2024-05-09T10:38:24.161Z,16.300
2024-05-09T10:39:34.244Z,16.300
2024-05-09T10:40:31.443Z,16.300
2024-05-09T10:41:24.699Z,16.300
2024-05-09T10:42:20.110Z,16.400
2024-05-09T10:43:45.756Z,16.400
2024-05-09T10:45:21.813Z,16.500
2024-05-09T10:46:32.122Z,16.500
2024-05-09T10:47:33.973Z,16.650
2024-05-09T10:48:23.793Z,16.700
2024-05-09T10:49:21.603Z,16.700
2024-05-09T10:50:34.155Z,16.700
2024-05-09T10:51:29.387Z,16.700
2024-05-09T10:53:33.233Z,16.600
2024-05-09T10:54:27.964Z,16.700
2024-05-09T10:55:24.305Z,16.650
2024-05-09T10:56:20.415Z,16.700
2024-05-09T10:57:31.552Z,16.800
2024-05-09T10:58:26.485Z,16.800
2024-05-09T10:59:24.410Z,16.900
2024-05-09T11:01:28.527Z,17.000
2024-05-09T11:02:25.420Z,17.150
2024-05-09T11:03:20.500Z,17.300
2024-05-09T11:04:30.963Z,17.300
2024-05-09T11:05:26.311Z,17.300
2024-05-09T11:06:21.506Z,17.400
2024-05-09T11:07:24.043Z,17.500
2024-05-09T11:11:24.263Z,17.700
2024-05-09T11:12:27.645Z,17.700
2024-05-09T11:13:22.280Z,17.700
2024-05-09T11:14:33.390Z,17.800
2024-05-09T11:16:26.287Z,17.900
2024-05-09T11:17:22.288Z,17.900
2024-05-09T11:18:25.284Z,17.900
2024-05-09T11:19:25.774Z,17.900
2024-05-09T11:20:29.103Z,17.900
2024-05-09T11:21:33.942Z,18.000
2024-05-09T11:23:25.107Z,18.100
2024-05-09T11:24:21.259Z,18.200
2024-05-09T11:25:30.108Z,18.300
2024-05-09T11:26:22.515Z,18.400
2024-05-09T11:27:21.951Z,18.500
2024-05-09T11:28:34.199Z,18.500
2024-05-09T11:30:27.039Z,18.400
2024-05-09T11:31:21.867Z,18.300
2024-05-09T11:32:33.337Z,18.300
2024-05-09T11:33:27.266Z,18.350
2024-05-09T11:34:22.145Z,18.500
2024-05-09T11:35:32.375Z,18.700
2024-05-09T11:36:24.130Z,18.800
2024-05-09T11:37:24.784Z,18.900
2024-05-09T11:39:30.556Z,19.100
2024-05-09T11:40:32.328Z,19.050
2024-05-09T11:41:23.623Z,19.100
2024-05-09T11:42:31.883Z,19.100
2024-05-09T11:43:29.496Z,19.200
2024-05-09T11:44:24.582Z,19.300
2024-05-09T11:45:21.818Z,19.400
2024-05-09T11:47:27.174Z,19.500
2024-05-09T11:48:23.014Z,19.550
2024-05-09T11:49:25.340Z,19.600
2024-05-09T11:50:32.826Z,19.600
2024-05-09T11:51:26.578Z,19.600
2024-05-09T11:55:26.827Z,19.900
2024-05-09T11:56:24.267Z,20.000
2024-05-09T11:57:30.854Z,20.000
2024-05-09T11:58:24.033Z,20.000
2024-05-09T11:59:21.074Z,20.100
2024-05-09T12:00:33.724Z,20.200
2024-05-09T12:01:27.820Z,20.200
2024-05-09T12:02:25.466Z,20.200
2024-05-09T12:03:32.754Z,20.300
2024-05-09T12:04:21.657Z,20.300
2024-05-09T12:05:26.660Z,20.300
2024-05-09T12:06:20.159Z,20.300
2024-05-09T12:08:20.056Z,20.300
2024-05-09T12:09:21.710Z,20.400
2024-05-09T12:10:35.817Z,20.400
2024-05-09T12:11:28.736Z,20.400
2024-05-09T12:12:24.916Z,20.300
2024-05-09T12:13:20.113Z,20.400
2024-05-09T12:14:31.170Z,20.500
2024-05-09T12:16:23.764Z,20.600
2024-05-09T12:17:33.146Z,20.600
2024-05-09T12:18:31.631Z,20.700
2024-05-09T12:19:26.944Z,20.800
2024-05-09T12:20:28.578Z,20.700
2024-05-09T12:21:30.093Z,20.800
2024-05-09T12:26:28.163Z,21.000
2024-05-09T12:27:19.925Z,21.100
2024-05-09T12:28:30.332Z,21.100
2024-05-09T12:29:26.850Z,21.200
2024-05-09T12:30:32.502Z,21.200
2024-05-09T12:31:32.065Z,21.200
2024-05-09T12:32:28.486Z,21.300
2024-05-09T12:33:24.063Z,21.300
2024-05-09T12:34:19.715Z,21.300
2024-05-09T12:35:30.585Z,21.400
2024-05-09T12:36:27.871Z,21.400
2024-05-09T12:37:22.148Z,21.300
2024-05-09T12:38:22.702Z,21.400
2024-05-09T12:39:30.243Z,21.400
2024-05-09T12:40:34.124Z,21.300
2024-05-09T12:41:20.080Z,21.350
2024-05-09T12:42:27.164Z,21.400
2024-05-09T12:43:28.270Z,21.400
2024-05-09T12:44:22.778Z,21.400
2024-05-09T12:45:27.852Z,21.400
2024-05-09T12:46:21.725Z,21.400
2024-05-09T12:47:23.940Z,21.500
2024-05-09T12:48:20.310Z,21.400
2024-05-09T12:49:24.952Z,21.600
2024-05-09T12:50:32.957Z,21.600
2024-05-09T12:51:22.011Z,21.500
2024-05-09T12:52:22.721Z,21.400
2024-05-09T12:53:24.196Z,21.300
2024-05-09T12:54:24.167Z,21.300
2024-05-09T12:55:24.673Z,21.300
2024-05-09T12:56:29.751Z,21.350
2024-05-09T12:57:21.930Z,21.500
2024-05-09T12:58:22.822Z,21.400
2024-05-09T12:59:31.770Z,21.400
2024-05-09T13:00:33.743Z,21.400
2024-05-09T13:02:22.209Z,21.400
2024-05-09T13:03:34.172Z,21.500
2024-05-09T13:04:25.928Z,21.600
2024-05-09T13:05:22.937Z,21.700
2024-05-09T13:06:35.137Z,21.800
2024-05-09T13:07:29.088Z,21.800
2024-05-09T13:08:25.572Z,21.700
2024-05-09T13:10:32.728Z,21.500
2024-05-09T13:11:27.573Z,21.500
2024-05-09T13:12:23.998Z,21.600
2024-05-09T13:13:33.930Z,21.600
2024-05-09T13:14:27.752Z,21.700
2024-05-09T13:15:24.481Z,21.600
2024-05-09T13:16:23.711Z,21.600
2024-05-09T13:18:25.876Z,21.600
2024-05-09T13:19:21.879Z,21.600
2024-05-09T13:20:34.583Z,21.500
2024-05-09T13:21:29.943Z,21.500
2024-05-09T13:22:24.164Z,21.500
2024-05-09T13:23:22.125Z,21.500
2024-05-09T13:24:19.636Z,21.400
2024-05-09T13:25:27.237Z,21.400
2024-05-09T13:26:21.584Z,21.400
2024-05-09T13:27:23.457Z,21.450
2024-05-09T13:28:28.179Z,21.600
2024-05-09T13:29:24.553Z,21.600
2024-05-09T13:31:24.613Z,21.600
2024-05-09T13:32:25.810Z,21.500
2024-05-09T13:33:22.194Z,21.500
2024-05-09T13:34:27.764Z,21.450
2024-05-09T13:35:21.619Z,21.400
2024-05-09T13:36:24.168Z,21.400
2024-05-09T13:37:20.549Z,21.500
2024-05-09T13:38:29.887Z,21.500
2024-05-09T13:39:21.211Z,21.600
2024-05-09T13:40:31.741Z,21.600
2024-05-09T13:41:32.154Z,21.600
2024-05-09T13:42:24.597Z,21.650
2024-05-09T13:43:24.351Z,21.600
2024-05-09T13:44:20.652Z,21.700
2024-05-09T13:45:32.512Z,21.800
2024-05-09T13:48:31.839Z,21.900
2024-05-09T13:49:29.106Z,21.900
2024-05-09T13:50:33.921Z,22.000
2024-05-09T13:51:21.204Z,22.000
2024-05-09T13:52:29.671Z,22.000
2024-05-09T13:53:25.797Z,21.900
2024-05-09T13:54:24.102Z,21.900
2024-05-09T13:56:27.665Z,22.000
2024-05-09T13:57:25.592Z,22.000
2024-05-09T13:58:22.935Z,21.900
2024-05-09T13:59:29.707Z,21.800
2024-05-09T14:00:38.434Z,21.700
2024-05-09T14:01:21.889Z,21.600
2024-05-09T14:02:21.549Z,21.500
2024-05-09T14:03:28.258Z,21.500
2024-05-09T14:04:25.539Z,21.500
2024-05-09T14:05:23.845Z,21.650
2024-05-09T14:06:30.506Z,21.700
2024-05-09T14:07:27.209Z,21.700
2024-05-09T14:08:23.005Z,21.800
2024-05-09T14:09:23.615Z,21.900
2024-05-09T14:10:31.904Z,21.900
2024-05-09T14:11:25.681Z,21.900
2024-05-09T14:12:20.485Z,21.900
2024-05-09T14:13:30.153Z,21.900
2024-05-09T14:14:26.293Z,21.900
2024-05-09T14:15:23.159Z,22.000
2024-05-09T14:16:27.787Z,21.900
2024-05-09T14:17:21.086Z,21.900
2024-05-09T14:18:25.255Z,21.900
2024-05-09T14:19:20.405Z,21.800
2024-05-09T14:20:30.691Z,21.800
2024-05-09T14:21:26.242Z,21.800
2024-05-09T14:22:23.834Z,21.800
2024-05-09T14:23:32.043Z,21.800
2024-05-09T14:25:25.044Z,21.900
2024-05-09T14:26:19.560Z,21.900
2024-05-09T14:27:29.872Z,21.650